createdAt,value
2018-12-16T00:00:24.707Z,1017.59
2018-12-16T00:01:24.719Z,1017.60
2018-12-16T00:02:24.691Z,1017.60
2018-12-16T00:03:24.681Z,1017.59
2018-12-16T00:04:24.661Z,1017.59
2018-12-16T00:05:24.665Z,1017.55
2018-12-16T00:06:24.645Z,1017.52
2018-12-16T00:07:24.642Z,1017.52
2018-12-16T00:08:24.631Z,1017.48
2018-12-16T00:09:24.618Z,1017.47
2018-12-16T00:10:24.604Z,1017.42
2018-12-16T00:11:24.609Z,1017.43
2018-12-16T00:12:24.591Z,1017.40
2018-12-16T00:13:24.573Z,1017.41
2018-12-16T00:14:24.574Z,1017.39
2018-12-16T00:15:24.559Z,1017.40
2018-12-16T00:16:24.538Z,1017.42
2018-12-16T00:17:24.535Z,1017.47
2018-12-16T00:18:24.531Z,1017.49
2018-12-16T00:19:24.513Z,1017.45
2018-12-16T00:20:24.503Z,1017.45
2018-12-16T00:21:24.491Z,1017.43
2018-12-16T00:22:29.825Z,1017.44
2018-12-16T00:23:25.475Z,1017.43
2018-12-16T00:24:24.455Z,1017.44
2018-12-16T00:25:24.454Z,1017.41
2018-12-16T00:26:24.434Z,1017.38
2018-12-16T00:27:24.431Z,1017.39
2018-12-16T00:28:24.421Z,1017.41
2018-12-16T00:29:24.410Z,1017.37
2018-12-16T00:30:24.395Z,1017.38
2018-12-16T00:31:24.383Z,1017.36
2018-12-16T00:32:24.378Z,1017.38
2018-12-16T00:33:24.375Z,1017.30
2018-12-16T00:34:24.370Z,1017.33
2018-12-16T00:35:24.346Z,1017.33
2018-12-16T00:36:24.328Z,1017.29
2018-12-16T00:37:24.329Z,1017.29
2018-12-16T00:38:24.302Z,1017.28
2018-12-16T00:39:24.302Z,1017.29
2018-12-16T00:40:24.433Z,1017.26
2018-12-16T00:41:24.281Z,1017.25
2018-12-16T00:42:24.273Z,1017.22
2018-12-16T00:43:24.266Z,1017.20
2018-12-16T00:44:24.253Z,1017.18
2018-12-16T00:45:24.237Z,1017.19
2018-12-16T00:46:24.220Z,1017.16
2018-12-16T00:47:24.214Z,1017.12
2018-12-16T00:48:24.198Z,1017.12
2018-12-16T00:49:24.193Z,1017.11
2018-12-16T00:50:24.184Z,1017.11
2018-12-16T00:51:24.174Z,1017.08
2018-12-16T00:52:24.167Z,1017.06
2018-12-16T00:53:24.149Z,1017.04
2018-12-16T00:54:24.147Z,1017.03
2018-12-16T00:55:24.133Z,1017.07
2018-12-16T00:56:24.117Z,1016.99
2018-12-16T00:57:24.107Z,1017.05
2018-12-16T00:58:24.097Z,1017.00
2018-12-16T00:59:24.087Z,1017.01
2018-12-16T01:00:24.089Z,1017.03
2018-12-16T01:01:24.066Z,1017.01
2018-12-16T01:02:24.056Z,1017.01
2018-12-16T01:03:24.045Z,1017.04
2018-12-16T01:04:24.032Z,1017.00
2018-12-16T01:05:24.025Z,1017.06
2018-12-16T01:06:24.009Z,1016.95
2018-12-16T01:07:24.011Z,1016.97
2018-12-16T01:08:24.062Z,1016.92
2018-12-16T01:09:23.980Z,1016.91
2018-12-16T01:10:23.964Z,1016.87
2018-12-16T01:11:23.960Z,1016.89
2018-12-16T01:12:23.965Z,1016.91
2018-12-16T01:13:23.939Z,1016.79
2018-12-16T01:14:23.937Z,1016.93
2018-12-16T01:15:23.919Z,1016.87
2018-12-16T01:16:23.907Z,1016.84
2018-12-16T01:17:23.896Z,1016.85
2018-12-16T01:18:23.885Z,1016.78
2018-12-16T01:19:23.882Z,1016.81
2018-12-16T01:20:23.872Z,1016.87
2018-12-16T01:21:23.856Z,1016.80
2018-12-16T01:22:23.838Z,1016.79
2018-12-16T01:23:23.833Z,1016.80
2018-12-16T01:24:23.823Z,1016.78
2018-12-16T01:25:23.812Z,1016.80
2018-12-16T01:26:23.803Z,1016.78
2018-12-16T01:27:23.789Z,1016.72
2018-12-16T01:28:23.779Z,1016.72
2018-12-16T01:29:23.765Z,1016.77
2018-12-16T01:30:23.760Z,1016.72
2018-12-16T01:31:23.751Z,1016.67
2018-12-16T01:32:23.750Z,1016.69
2018-12-16T01:33:23.727Z,1016.67
2018-12-16T01:34:23.717Z,1016.59
2018-12-16T01:35:23.739Z,1016.60
2018-12-16T01:36:23.693Z,1016.59
2018-12-16T01:37:23.686Z,1016.58
2018-12-16T01:38:23.670Z,1016.57
2018-12-16T01:39:23.658Z,1016.56
2018-12-16T01:40:23.651Z,1016.53
2018-12-16T01:41:23.700Z,1016.55
2018-12-16T01:42:23.633Z,1016.56
2018-12-16T01:43:23.624Z,1016.50
2018-12-16T01:44:24.560Z,1016.48
2018-12-16T01:45:23.601Z,1016.42
2018-12-16T01:46:23.593Z,1016.47
2018-12-16T01:47:23.576Z,1016.41
2018-12-16T01:48:23.574Z,1016.38
2018-12-16T01:49:23.564Z,1016.33
2018-12-16T01:50:23.570Z,1016.31
2018-12-16T01:51:23.536Z,1016.30
2018-12-16T01:52:23.530Z,1016.32
2018-12-16T01:53:23.516Z,1016.36
2018-12-16T01:54:23.501Z,1016.30
2018-12-16T01:55:23.500Z,1016.34
2018-12-16T01:56:23.480Z,1016.31
2018-12-16T01:57:23.490Z,1016.24
2018-12-16T01:58:23.507Z,1016.20
2018-12-16T01:59:23.455Z,1016.15
2018-12-16T02:00:23.438Z,1016.12
2018-12-16T02:01:23.430Z,1016.09
2018-12-16T02:02:23.420Z,1016.10
2018-12-16T02:03:23.412Z,1016.12
2018-12-16T02:04:23.400Z,1016.07
2018-12-16T02:05:23.386Z,1016.07
2018-12-16T02:06:23.377Z,1016.03
2018-12-16T02:07:23.365Z,1016.06
2018-12-16T02:08:23.354Z,1016.04
2018-12-16T02:09:23.353Z,1016.04
2018-12-16T02:10:23.348Z,1016.04
2018-12-16T02:11:23.327Z,1016.01
2018-12-16T02:12:23.355Z,1015.99
2018-12-16T02:13:23.305Z,1016.02
2018-12-16T02:14:23.371Z,1015.99
2018-12-16T02:15:23.296Z,1015.94
2018-12-16T02:16:23.272Z,1015.92
2018-12-16T02:17:23.275Z,1015.91
2018-12-16T02:18:23.263Z,1015.89
2018-12-16T02:19:23.243Z,1015.90
2018-12-16T02:20:23.234Z,1015.83
2018-12-16T02:21:23.224Z,1015.85
2018-12-16T02:22:23.210Z,1015.82
2018-12-16T02:23:23.203Z,1015.82
2018-12-16T02:24:23.188Z,1015.87
2018-12-16T02:25:23.176Z,1015.83
2018-12-16T02:26:23.169Z,1015.84
2018-12-16T02:27:23.183Z,1015.87
2018-12-16T02:28:23.147Z,1015.86
2018-12-16T02:29:23.135Z,1015.84
2018-12-16T02:30:23.130Z,1015.79
2018-12-16T02:31:23.117Z,1015.76
2018-12-16T02:32:23.113Z,1015.81
2018-12-16T02:33:23.113Z,1015.79
2018-12-16T02:34:23.097Z,1015.77
2018-12-16T02:35:23.074Z,1015.79
2018-12-16T02:36:23.082Z,1015.78
2018-12-16T02:37:23.046Z,1015.78
2018-12-16T02:38:23.039Z,1015.78
2018-12-16T02:39:23.041Z,1015.77
2018-12-16T02:40:23.024Z,1015.76
2018-12-16T02:41:23.020Z,1015.76
2018-12-16T02:42:22.999Z,1015.77
2018-12-16T02:43:22.987Z,1015.80
2018-12-16T02:44:22.975Z,1015.79
2018-12-16T02:45:23.004Z,1015.78
2018-12-16T02:46:22.971Z,1015.77
2018-12-16T02:47:22.949Z,1015.78
2018-12-16T02:48:22.932Z,1015.77
2018-12-16T02:49:22.930Z,1015.78
2018-12-16T02:50:22.912Z,1015.77
2018-12-16T02:51:22.902Z,1015.75
2018-12-16T02:52:22.892Z,1015.72
2018-12-16T02:53:22.885Z,1015.73
2018-12-16T02:54:22.871Z,1015.75
2018-12-16T02:55:22.869Z,1015.74
2018-12-16T02:56:22.854Z,1015.69
2018-12-16T02:57:22.839Z,1015.72
2018-12-16T02:58:22.842Z,1015.65
2018-12-16T02:59:22.828Z,1015.68
2018-12-16T03:00:22.803Z,1015.59
2018-12-16T03:01:22.802Z,1015.61
2018-12-16T03:02:22.789Z,1015.58
2018-12-16T03:03:22.772Z,1015.54
2018-12-16T03:04:22.781Z,1015.55
2018-12-16T03:05:22.756Z,1015.55
2018-12-16T03:06:22.750Z,1015.52
2018-12-16T03:07:22.736Z,1015.54
2018-12-16T03:08:22.727Z,1015.50
2018-12-16T03:09:22.719Z,1015.52
2018-12-16T03:10:22.703Z,1015.44
2018-12-16T03:11:22.687Z,1015.46
2018-12-16T03:12:22.683Z,1015.41
2018-12-16T03:13:22.665Z,1015.36
2018-12-16T03:14:22.675Z,1015.42
2018-12-16T03:15:22.658Z,1015.41
2018-12-16T03:16:22.639Z,1015.49
2018-12-16T03:17:24.633Z,1015.35
2018-12-16T03:18:22.617Z,1015.29
2018-12-16T03:19:22.605Z,1015.31
2018-12-16T03:20:22.609Z,1015.25
2018-12-16T03:21:22.594Z,1015.24
2018-12-16T03:22:22.572Z,1015.24
2018-12-16T03:23:22.562Z,1015.27
2018-12-16T03:24:22.547Z,1015.28
2018-12-16T03:25:22.548Z,1015.29
2018-12-16T03:26:22.532Z,1015.34
2018-12-16T03:27:22.527Z,1015.29
2018-12-16T03:28:22.526Z,1015.21
2018-12-16T03:29:22.499Z,1015.19
2018-12-16T03:30:23.421Z,1015.19
2018-12-16T03:31:22.491Z,1015.22
2018-12-16T03:32:22.480Z,1015.17
2018-12-16T03:33:22.461Z,1015.17
2018-12-16T03:34:22.450Z,1015.18
2018-12-16T03:35:22.441Z,1015.15
2018-12-16T03:36:22.427Z,1015.15
2018-12-16T03:37:22.414Z,1015.15
2018-12-16T03:38:22.411Z,1015.12
2018-12-16T03:39:22.401Z,1015.14
2018-12-16T03:40:22.382Z,1015.16
2018-12-16T03:41:22.373Z,1015.11
2018-12-16T03:42:22.360Z,1015.13
2018-12-16T03:43:22.353Z,1015.10
2018-12-16T03:44:22.346Z,1015.08
2018-12-16T03:45:22.332Z,1015.10
2018-12-16T03:46:22.319Z,1015.07
2018-12-16T03:47:22.307Z,1015.07
2018-12-16T03:48:22.304Z,1015.12
2018-12-16T03:49:22.285Z,1015.12
2018-12-16T03:50:22.337Z,1015.08
2018-12-16T03:51:22.265Z,1015.09
2018-12-16T03:52:22.257Z,1015.07
2018-12-16T03:53:22.243Z,1015.08
2018-12-16T03:54:22.243Z,1015.05
2018-12-16T03:55:22.231Z,1015.06
2018-12-16T03:56:22.220Z,1015.08
2018-12-16T03:57:22.201Z,1015.07
2018-12-16T03:58:22.200Z,1015.08
2018-12-16T03:59:22.180Z,1015.04
2018-12-16T04:00:22.169Z,1015.05
2018-12-16T04:01:22.165Z,1015.06
2018-12-16T04:02:22.148Z,1015.03
2018-12-16T04:03:22.138Z,1015.04
2018-12-16T04:04:22.128Z,1015.01
2018-12-16T04:05:22.120Z,1015.03
2018-12-16T04:06:22.113Z,1014.99
2018-12-16T04:07:22.102Z,1014.97
2018-12-16T04:08:22.088Z,1014.97
2018-12-16T04:09:22.074Z,1014.93
2018-12-16T04:10:22.063Z,1014.91
2018-12-16T04:11:22.056Z,1014.92
2018-12-16T04:12:22.045Z,1014.85
2018-12-16T04:13:22.066Z,1014.87
2018-12-16T04:14:22.029Z,1014.86
2018-12-16T04:15:22.012Z,1014.87
2018-12-16T04:16:22.004Z,1014.88
2018-12-16T04:17:22.006Z,1014.84
2018-12-16T04:18:21.983Z,1014.80
2018-12-16T04:19:21.967Z,1014.75
2018-12-16T04:20:21.954Z,1014.74
2018-12-16T04:21:21.953Z,1014.64
2018-12-16T04:22:21.935Z,1014.67
2018-12-16T04:23:27.421Z,1014.65
2018-12-16T04:24:22.925Z,1014.64
2018-12-16T04:25:21.908Z,1014.61
2018-12-16T04:26:21.894Z,1014.60
2018-12-16T04:27:21.885Z,1014.59
2018-12-16T04:28:21.874Z,1014.58
2018-12-16T04:29:21.882Z,1014.51
2018-12-16T04:30:21.859Z,1014.52
2018-12-16T04:31:21.843Z,1014.48
2018-12-16T04:32:21.833Z,1014.50
2018-12-16T04:33:21.825Z,1014.44
2018-12-16T04:34:21.810Z,1014.40
2018-12-16T04:35:21.799Z,1014.42
2018-12-16T04:36:21.788Z,1014.38
2018-12-16T04:37:21.784Z,1014.42
2018-12-16T04:38:21.775Z,1014.43
2018-12-16T04:39:21.765Z,1014.41
2018-12-16T04:40:21.757Z,1014.37
2018-12-16T04:41:21.742Z,1014.34
2018-12-16T04:42:21.737Z,1014.34
2018-12-16T04:43:21.723Z,1014.34
2018-12-16T04:44:21.706Z,1014.37
2018-12-16T04:45:21.718Z,1014.34
2018-12-16T04:46:21.684Z,1014.33
2018-12-16T04:47:21.672Z,1014.29
2018-12-16T04:48:21.711Z,1014.32
2018-12-16T04:49:21.650Z,1014.28
2018-12-16T04:50:21.649Z,1014.27
2018-12-16T04:51:21.630Z,1014.30
2018-12-16T04:52:21.637Z,1014.33
2018-12-16T04:53:21.615Z,1014.29
2018-12-16T04:54:21.599Z,1014.28
2018-12-16T04:55:21.589Z,1014.29
2018-12-16T04:56:21.574Z,1014.27
2018-12-16T04:57:21.576Z,1014.28
2018-12-16T04:58:21.553Z,1014.29
2018-12-16T04:59:21.545Z,1014.25
2018-12-16T05:00:21.540Z,1014.25
2018-12-16T05:01:21.523Z,1014.22
2018-12-16T05:02:21.524Z,1014.20
2018-12-16T05:03:21.505Z,1014.23
2018-12-16T05:04:21.511Z,1014.19
2018-12-16T05:05:21.488Z,1014.19
2018-12-16T05:06:21.472Z,1014.22
2018-12-16T05:07:21.468Z,1014.15
2018-12-16T05:08:21.458Z,1014.17
2018-12-16T05:09:21.519Z,1014.15
2018-12-16T05:10:21.433Z,1014.12
2018-12-16T05:11:21.419Z,1014.10
2018-12-16T05:12:21.412Z,1014.07
2018-12-16T05:13:21.393Z,1014.03
2018-12-16T05:14:21.384Z,1013.96
2018-12-16T05:15:21.382Z,1013.97
2018-12-16T05:16:21.366Z,1013.93
2018-12-16T05:17:21.359Z,1013.87
2018-12-16T05:18:21.350Z,1013.88
2018-12-16T05:19:21.331Z,1013.83
2018-12-16T05:20:21.323Z,1013.77
2018-12-16T05:21:21.314Z,1013.77
2018-12-16T05:22:21.301Z,1013.79
2018-12-16T05:23:21.285Z,1013.78
2018-12-16T05:24:21.282Z,1013.74
2018-12-16T05:25:21.269Z,1013.72
2018-12-16T05:26:21.255Z,1013.71
2018-12-16T05:27:21.248Z,1013.73
2018-12-16T05:28:21.245Z,1013.66
2018-12-16T05:29:21.232Z,1013.68
2018-12-16T05:30:21.219Z,1013.71
2018-12-16T05:31:21.203Z,1013.67
2018-12-16T05:32:21.197Z,1013.65
2018-12-16T05:33:21.200Z,1013.63
2018-12-16T05:34:21.185Z,1013.65
2018-12-16T05:35:21.168Z,1013.63
2018-12-16T05:36:21.175Z,1013.61
2018-12-16T05:37:21.147Z,1013.56
2018-12-16T05:38:21.134Z,1013.52
2018-12-16T05:39:21.131Z,1013.54
2018-12-16T05:40:21.139Z,1013.51
2018-12-16T05:41:21.097Z,1013.44
2018-12-16T05:42:21.091Z,1013.47
2018-12-16T05:43:21.150Z,1013.43
2018-12-16T05:44:21.071Z,1013.49
2018-12-16T05:45:21.052Z,1013.42
2018-12-16T05:46:21.049Z,1013.46
2018-12-16T05:47:21.037Z,1013.43
2018-12-16T05:48:21.025Z,1013.48
2018-12-16T05:49:21.018Z,1013.47
2018-12-16T05:50:21.005Z,1013.46
2018-12-16T05:51:20.995Z,1013.39
2018-12-16T05:52:20.984Z,1013.41
2018-12-16T05:53:20.975Z,1013.41
2018-12-16T05:54:20.958Z,1013.42
2018-12-16T05:55:20.954Z,1013.40
2018-12-16T05:56:20.948Z,1013.42
2018-12-16T05:57:20.932Z,1013.44
2018-12-16T05:58:20.931Z,1013.42
2018-12-16T05:59:20.911Z,1013.41
2018-12-16T06:00:20.898Z,1013.43
2018-12-16T06:01:20.892Z,1013.43
2018-12-16T06:02:20.880Z,1013.41
2018-12-16T06:03:20.864Z,1013.36
2018-12-16T06:04:20.864Z,1013.39
2018-12-16T06:05:20.860Z,1013.35
2018-12-16T06:06:20.833Z,1013.36
2018-12-16T06:07:20.826Z,1013.28
2018-12-16T06:08:20.815Z,1013.32
2018-12-16T06:09:20.818Z,1013.27
2018-12-16T06:10:20.789Z,1013.27
2018-12-16T06:11:20.778Z,1013.30
2018-12-16T06:12:20.773Z,1013.26
2018-12-16T06:13:20.767Z,1013.27
2018-12-16T06:14:20.751Z,1013.27
2018-12-16T06:15:20.744Z,1013.25
2018-12-16T06:16:20.729Z,1013.23
2018-12-16T06:17:20.712Z,1013.20
2018-12-16T06:18:20.727Z,1013.18
2018-12-16T06:19:20.695Z,1013.16
2018-12-16T06:20:20.700Z,1013.13
2018-12-16T06:21:20.676Z,1013.12
2018-12-16T06:22:20.679Z,1013.13
2018-12-16T06:23:20.657Z,1013.09
2018-12-16T06:24:20.641Z,1013.13
2018-12-16T06:25:20.638Z,1013.11
2018-12-16T06:26:20.617Z,1013.13
2018-12-16T06:27:20.610Z,1013.15
2018-12-16T06:28:20.595Z,1013.11
2018-12-16T06:29:20.587Z,1013.14
2018-12-16T06:30:20.575Z,1013.13
2018-12-16T06:31:20.572Z,1013.14
2018-12-16T06:32:20.559Z,1013.09
2018-12-16T06:33:20.540Z,1013.09
2018-12-16T06:34:20.530Z,1013.09
2018-12-16T06:35:20.524Z,1013.06
2018-12-16T06:36:20.511Z,1013.10
2018-12-16T06:37:20.529Z,1013.11
2018-12-16T06:38:20.495Z,1013.07
2018-12-16T06:39:20.486Z,1013.14
2018-12-16T06:40:20.467Z,1013.05
2018-12-16T06:41:20.470Z,1012.99
2018-12-16T06:42:20.442Z,1013.01
2018-12-16T06:43:20.446Z,1012.97
2018-12-16T06:44:20.430Z,1012.92
2018-12-16T06:45:20.415Z,1012.93
2018-12-16T06:46:20.415Z,1012.85
2018-12-16T06:47:20.400Z,1012.86
2018-12-16T06:48:20.392Z,1012.87
2018-12-16T06:49:20.377Z,1012.76
2018-12-16T06:50:20.371Z,1012.72
2018-12-16T06:51:20.377Z,1012.74
2018-12-16T06:52:20.359Z,1012.72
2018-12-16T06:53:20.340Z,1012.68
2018-12-16T06:54:20.322Z,1012.70
2018-12-16T06:55:20.312Z,1012.66
2018-12-16T06:56:20.294Z,1012.66
2018-12-16T06:57:20.296Z,1012.64
2018-12-16T06:58:20.278Z,1012.58
2018-12-16T06:59:20.268Z,1012.64
2018-12-16T07:00:21.156Z,1012.55
2018-12-16T07:01:20.245Z,1012.54
2018-12-16T07:02:20.230Z,1012.58
2018-12-16T07:03:20.221Z,1012.60
2018-12-16T07:04:20.212Z,1012.59
2018-12-16T07:05:20.198Z,1012.62
2018-12-16T07:06:20.199Z,1012.62
2018-12-16T07:07:20.190Z,1012.69
2018-12-16T07:08:20.177Z,1012.65
2018-12-16T07:09:20.160Z,1012.66
2018-12-16T07:10:20.150Z,1012.72
2018-12-16T07:11:20.135Z,1012.73
2018-12-16T07:12:20.136Z,1012.76
2018-12-16T07:13:20.123Z,1012.75
2018-12-16T07:14:20.107Z,1012.83
2018-12-16T07:15:20.114Z,1012.92
2018-12-16T07:16:20.088Z,1012.90
2018-12-16T07:17:20.087Z,1012.93
2018-12-16T07:18:20.059Z,1012.95
2018-12-16T07:19:20.057Z,1013.03
2018-12-16T07:20:20.042Z,1013.04
2018-12-16T07:21:20.042Z,1012.99
2018-12-16T07:22:20.035Z,1012.96
2018-12-16T07:23:20.008Z,1013.00
2018-12-16T07:24:19.998Z,1013.01
2018-12-16T07:25:20.017Z,1012.98
2018-12-16T07:26:19.991Z,1012.97
2018-12-16T07:27:19.991Z,1012.94
2018-12-16T07:28:19.954Z,1012.96
2018-12-16T07:29:19.980Z,1012.95
2018-12-16T07:30:19.932Z,1012.92
2018-12-16T07:31:19.921Z,1012.97
2018-12-16T07:32:19.958Z,1012.98
2018-12-16T07:33:20.019Z,1012.94
2018-12-16T07:34:19.927Z,1012.92
2018-12-16T07:35:19.895Z,1012.96
2018-12-16T07:36:19.883Z,1012.94
2018-12-16T07:37:19.859Z,1012.93
2018-12-16T07:38:19.887Z,1012.95
2018-12-16T07:39:19.829Z,1012.90
2018-12-16T07:40:19.830Z,1012.91
2018-12-16T07:41:19.813Z,1012.93
2018-12-16T07:42:19.812Z,1012.90
2018-12-16T07:43:19.802Z,1012.98
2018-12-16T07:44:19.805Z,1012.89
2018-12-16T07:45:19.823Z,1012.95
2018-12-16T07:46:19.798Z,1012.89
2018-12-16T07:47:19.764Z,1012.90
2018-12-16T07:48:19.753Z,1012.89
2018-12-16T07:49:19.727Z,1012.92
2018-12-16T07:50:19.733Z,1012.89
2018-12-16T07:51:19.705Z,1012.92
2018-12-16T07:52:19.707Z,1012.85
2018-12-16T07:53:19.694Z,1012.88
2018-12-16T07:54:19.682Z,1012.85
2018-12-16T07:55:19.682Z,1012.89
2018-12-16T07:56:19.677Z,1012.81
2018-12-16T07:57:19.640Z,1012.72
2018-12-16T07:58:19.659Z,1012.72
2018-12-16T07:59:19.632Z,1012.71
2018-12-16T08:00:19.617Z,1012.71
2018-12-16T08:01:19.602Z,1012.73
2018-12-16T08:02:19.595Z,1012.70
2018-12-16T08:03:19.577Z,1012.71
2018-12-16T08:04:19.591Z,1012.76
2018-12-16T08:05:19.558Z,1012.65
2018-12-16T08:06:19.550Z,1012.65
2018-12-16T08:07:19.541Z,1012.66
2018-12-16T08:08:19.531Z,1012.68
2018-12-16T08:09:19.557Z,1012.66
2018-12-16T08:10:19.508Z,1012.70
2018-12-16T08:11:19.491Z,1012.68
2018-12-16T08:12:19.499Z,1012.69
2018-12-16T08:13:19.472Z,1012.69
2018-12-16T08:14:19.464Z,1012.66
2018-12-16T08:15:19.459Z,1012.64
2018-12-16T08:16:19.443Z,1012.66
2018-12-16T08:17:19.435Z,1012.60
2018-12-16T08:18:19.425Z,1012.63
2018-12-16T08:19:19.413Z,1012.57
2018-12-16T08:20:19.402Z,1012.55
2018-12-16T08:21:19.396Z,1012.56
2018-12-16T08:22:19.382Z,1012.56
2018-12-16T08:23:19.370Z,1012.52
2018-12-16T08:24:23.212Z,1012.51
2018-12-16T08:25:19.353Z,1012.52
2018-12-16T08:26:19.336Z,1012.53
2018-12-16T08:27:19.322Z,1012.57
2018-12-16T08:28:19.325Z,1012.58
2018-12-16T08:29:19.305Z,1012.56
2018-12-16T08:30:19.295Z,1012.54
2018-12-16T08:31:19.286Z,1012.54
2018-12-16T08:32:19.273Z,1012.54
2018-12-16T08:33:19.259Z,1012.58
2018-12-16T08:34:19.260Z,1012.64
2018-12-16T08:35:19.235Z,1012.54
2018-12-16T08:36:19.232Z,1012.58
2018-12-16T08:37:19.230Z,1012.54
2018-12-16T08:38:19.219Z,1012.59
2018-12-16T08:39:20.772Z,1012.59
2018-12-16T08:40:19.218Z,1012.60
2018-12-16T08:41:19.179Z,1012.64
2018-12-16T08:42:19.170Z,1012.65
2018-12-16T08:43:19.160Z,1012.62
2018-12-16T08:44:19.150Z,1012.57
2018-12-16T08:45:19.144Z,1012.60
2018-12-16T08:46:19.126Z,1012.64
2018-12-16T08:47:19.114Z,1012.65
2018-12-16T08:48:19.102Z,1012.66
2018-12-16T08:49:19.100Z,1012.68
2018-12-16T08:50:19.094Z,1012.68
2018-12-16T08:51:19.074Z,1012.66
2018-12-16T08:52:19.062Z,1012.67
2018-12-16T08:53:19.050Z,1012.68
2018-12-16T08:54:19.062Z,1012.65
2018-12-16T08:55:19.040Z,1012.63
2018-12-16T08:56:19.017Z,1012.67
2018-12-16T08:57:19.015Z,1012.62
2018-12-16T08:58:18.993Z,1012.66
2018-12-16T08:59:18.982Z,1012.61
2018-12-16T09:00:18.973Z,1012.61
2018-12-16T09:01:18.962Z,1012.57
2018-12-16T09:02:18.959Z,1012.61
2018-12-16T09:03:18.957Z,1012.54
2018-12-16T09:04:18.935Z,1012.49
2018-12-16T09:05:18.926Z,1012.51
2018-12-16T09:06:18.911Z,1012.51
2018-12-16T09:07:18.903Z,1012.52
2018-12-16T09:08:18.894Z,1012.49
2018-12-16T09:09:18.884Z,1012.49
2018-12-16T09:10:18.872Z,1012.44
2018-12-16T09:11:18.854Z,1012.46
2018-12-16T09:12:19.521Z,1012.44
2018-12-16T09:13:18.873Z,1012.46
2018-12-16T09:14:18.828Z,1012.39
2018-12-16T09:15:18.815Z,1012.37
2018-12-16T09:16:18.808Z,1012.37
2018-12-16T09:17:18.803Z,1012.33
2018-12-16T09:18:18.816Z,1012.37
2018-12-16T09:19:18.773Z,1012.29
2018-12-16T09:20:18.768Z,1012.31
2018-12-16T09:21:18.751Z,1012.23
2018-12-16T09:22:18.739Z,1012.26
2018-12-16T09:23:18.739Z,1012.22
2018-12-16T09:24:18.716Z,1012.26
2018-12-16T09:25:18.763Z,1012.25
2018-12-16T09:26:18.698Z,1012.21
2018-12-16T09:27:18.691Z,1012.22
2018-12-16T09:28:18.684Z,1012.20
2018-12-16T09:29:19.392Z,1012.24
2018-12-16T09:30:18.661Z,1012.19
2018-12-16T09:31:18.648Z,1012.18
2018-12-16T09:32:18.631Z,1012.18
2018-12-16T09:33:18.619Z,1012.20
2018-12-16T09:34:18.618Z,1012.21
2018-12-16T09:35:18.596Z,1012.18
2018-12-16T09:36:18.599Z,1012.18
2018-12-16T09:37:18.583Z,1012.15
2018-12-16T09:38:18.569Z,1012.13
2018-12-16T09:39:18.562Z,1012.11
2018-12-16T09:40:18.550Z,1012.07
2018-12-16T09:41:18.534Z,1012.07
2018-12-16T09:42:18.524Z,1011.97
2018-12-16T09:43:18.520Z,1012.03
2018-12-16T09:44:18.505Z,1011.97
2018-12-16T09:45:18.493Z,1011.98
2018-12-16T09:46:18.482Z,1011.88
2018-12-16T09:47:18.473Z,1011.93
2018-12-16T09:48:18.469Z,1011.88
2018-12-16T09:49:18.449Z,1011.86
2018-12-16T09:50:18.437Z,1011.82
2018-12-16T09:51:18.432Z,1011.89
2018-12-16T09:52:18.416Z,1011.79
2018-12-16T09:53:18.410Z,1011.85
2018-12-16T09:54:18.399Z,1011.77
2018-12-16T09:55:18.386Z,1011.75
2018-12-16T09:56:18.372Z,1011.76
2018-12-16T09:57:18.369Z,1011.81
2018-12-16T09:58:18.354Z,1011.79
2018-12-16T09:59:18.342Z,1011.74
2018-12-16T10:00:18.333Z,1011.71
2018-12-16T10:01:18.328Z,1011.65
2018-12-16T10:02:18.325Z,1011.68
2018-12-16T10:03:18.297Z,1011.59
2018-12-16T10:04:18.285Z,1011.57
2018-12-16T10:05:18.277Z,1011.64
2018-12-16T10:06:18.268Z,1011.61
2018-12-16T10:07:18.259Z,1011.63
2018-12-16T10:08:18.241Z,1011.59
2018-12-16T10:09:19.471Z,1011.64
2018-12-16T10:10:18.228Z,1011.67
2018-12-16T10:11:18.221Z,1011.66
2018-12-16T10:12:18.263Z,1011.65
2018-12-16T10:13:18.193Z,1011.63
2018-12-16T10:14:18.184Z,1011.60
2018-12-16T10:15:18.219Z,1011.63
2018-12-16T10:16:18.170Z,1011.60
2018-12-16T10:17:18.214Z,1011.58
2018-12-16T10:18:18.139Z,1011.61
2018-12-16T10:19:18.127Z,1011.57
2018-12-16T10:20:18.127Z,1011.59
2018-12-16T10:21:18.109Z,1011.56
2018-12-16T10:22:18.109Z,1011.57
2018-12-16T10:23:18.086Z,1011.59
2018-12-16T10:24:18.076Z,1011.53
2018-12-16T10:25:18.069Z,1011.51
2018-12-16T10:26:18.060Z,1011.49
2018-12-16T10:27:18.045Z,1011.54
2018-12-16T10:28:18.051Z,1011.49
2018-12-16T10:29:18.025Z,1011.51
2018-12-16T10:30:18.111Z,1011.56
2018-12-16T10:31:18.003Z,1011.47
2018-12-16T10:32:17.994Z,1011.47
2018-12-16T10:33:17.980Z,1011.49
2018-12-16T10:34:18.001Z,1011.40
2018-12-16T10:35:17.968Z,1011.40
2018-12-16T10:36:17.950Z,1011.40
2018-12-16T10:37:17.940Z,1011.41
2018-12-16T10:38:17.930Z,1011.41
2018-12-16T10:39:17.918Z,1011.39
2018-12-16T10:40:17.932Z,1011.38
2018-12-16T10:41:17.895Z,1011.33
2018-12-16T10:42:17.884Z,1011.41
2018-12-16T10:43:17.875Z,1011.38
2018-12-16T10:44:17.864Z,1011.31
2018-12-16T10:45:17.850Z,1011.33
2018-12-16T10:46:17.887Z,1011.33
2018-12-16T10:47:17.830Z,1011.31
2018-12-16T10:48:17.831Z,1011.22
2018-12-16T10:49:17.816Z,1011.23
2018-12-16T10:50:17.799Z,1011.22
2018-12-16T10:51:17.781Z,1011.20
2018-12-16T10:52:17.770Z,1011.18
2018-12-16T10:53:17.772Z,1011.20
2018-12-16T10:54:17.766Z,1011.15
2018-12-16T10:55:17.759Z,1011.19
2018-12-16T10:56:17.738Z,1011.08
2018-12-16T10:57:17.726Z,1011.10
2018-12-16T10:58:17.717Z,1011.07
2018-12-16T10:59:17.706Z,1011.05
2018-12-16T11:00:17.693Z,1011.03
2018-12-16T11:01:17.686Z,1011.03
2018-12-16T11:02:17.676Z,1011.00
2018-12-16T11:03:17.677Z,1010.98
2018-12-16T11:04:17.649Z,1010.96
2018-12-16T11:05:17.641Z,1010.98
2018-12-16T11:06:17.636Z,1010.94
2018-12-16T11:07:17.620Z,1010.92
2018-12-16T11:08:17.614Z,1010.90
2018-12-16T11:09:17.602Z,1010.92
2018-12-16T11:10:17.590Z,1010.85
2018-12-16T11:11:17.607Z,1010.81
2018-12-16T11:12:17.573Z,1010.87
2018-12-16T11:13:17.560Z,1010.90
2018-12-16T11:14:17.541Z,1010.87
2018-12-16T11:15:17.541Z,1010.90
2018-12-16T11:16:17.528Z,1010.99
2018-12-16T11:17:17.513Z,1010.93
2018-12-16T11:18:17.494Z,1010.86
2018-12-16T11:19:17.620Z,1010.85
2018-12-16T11:20:17.525Z,1010.85
2018-12-16T11:21:17.462Z,1010.87
2018-12-16T11:22:17.459Z,1010.93
2018-12-16T11:23:17.788Z,1010.84
2018-12-16T11:24:17.460Z,1010.83
2018-12-16T11:25:18.464Z,1010.83
2018-12-16T11:26:17.415Z,1010.81
2018-12-16T11:27:17.424Z,1010.76
2018-12-16T11:28:17.387Z,1010.76
2018-12-16T11:29:17.389Z,1010.77
2018-12-16T11:30:17.391Z,1010.76
2018-12-16T11:31:17.423Z,1010.74
2018-12-16T11:32:17.363Z,1010.78
2018-12-16T11:33:17.384Z,1010.72
2018-12-16T11:34:17.334Z,1010.67
2018-12-16T11:35:17.318Z,1010.70
2018-12-16T11:36:17.335Z,1010.66
2018-12-16T11:37:17.304Z,1010.71
2018-12-16T11:38:17.299Z,1010.68
2018-12-16T11:39:17.822Z,1010.66
2018-12-16T11:40:17.273Z,1010.66
2018-12-16T11:41:17.255Z,1010.67
2018-12-16T11:42:17.244Z,1010.66
2018-12-16T11:43:17.244Z,1010.65
2018-12-16T11:44:17.230Z,1010.65
2018-12-16T11:45:17.222Z,1010.61
2018-12-16T11:46:17.212Z,1010.62
2018-12-16T11:47:17.377Z,1010.65
2018-12-16T11:48:17.475Z,1010.60
2018-12-16T11:49:17.177Z,1010.63
2018-12-16T11:50:17.179Z,1010.57
2018-12-16T11:51:17.157Z,1010.53
2018-12-16T11:52:17.139Z,1010.52
2018-12-16T11:53:17.136Z,1010.49
2018-12-16T11:54:17.119Z,1010.49
2018-12-16T11:55:17.109Z,1010.40
2018-12-16T11:56:17.110Z,1010.44
2018-12-16T11:57:17.104Z,1010.38
2018-12-16T11:58:17.075Z,1010.34
2018-12-16T11:59:17.067Z,1010.38
2018-12-16T12:00:17.062Z,1010.35
2018-12-16T12:01:17.046Z,1010.38
2018-12-16T12:02:17.030Z,1010.36
2018-12-16T12:03:17.033Z,1010.34
2018-12-16T12:04:17.023Z,1010.31
2018-12-16T12:05:17.002Z,1010.24